sensor_id;sensor_type;location;lat;lon;timestamp;pressure;altitude;pressure_sealevel;temperature;humidity
79534;BME280;68982;52.160;6.736;2023-04-03T00:02:24;102840.75;;;3.90;65.79
79534;BME280;68982;52.160;6.736;2023-04-03T00:04:49;102841.53;;;3.92;66.18
79534;BME280;68982;52.160;6.736;2023-04-03T00:07:14;102837.03;;;3.92;65.92
79534;BME280;68982;52.160;6.736;2023-04-03T00:09:40;102842.28;;;3.94;66.49
79534;BME280;68982;52.160;6.736;2023-04-03T00:12:05;102844.28;;;3.90;66.43
79534;BME280;68982;52.160;6.736;2023-04-03T00:14:31;102848.84;;;3.88;67.01
79534;BME280;68982;52.160;6.736;2023-04-03T00:16:56;102848.22;;;3.85;67.14
79534;BME280;68982;52.160;6.736;2023-04-03T00:19:22;102849.50;;;3.78;66.95
79534;BME280;68982;52.160;6.736;2023-04-03T00:21:47;102844.59;;;3.71;66.95
79534;BME280;68982;52.160;6.736;2023-04-03T00:24:13;102845.22;;;3.75;67.91
79534;BME280;68982;52.160;6.736;2023-04-03T00:26:39;102850.00;;;3.70;68.00
79534;BME280;68982;52.160;6.736;2023-04-03T00:29:04;102853.88;;;3.64;67.63
79534;BME280;68982;52.160;6.736;2023-04-03T00:31:30;102857.53;;;3.63;67.15
79534;BME280;68982;52.160;6.736;2023-04-03T00:33:55;102862.66;;;3.66;68.87
79534;BME280;68982;52.160;6.736;2023-04-03T00:36:20;102837.03;;;3.49;68.81
79534;BME280;68982;52.160;6.736;2023-04-03T00:38:46;102856.75;;;3.61;69.42
79534;BME280;68982;52.160;6.736;2023-04-03T00:41:11;102851.78;;;3.55;68.93
79534;BME280;68982;52.160;6.736;2023-04-03T00:43:37;102850.84;;;3.56;68.37
79534;BME280;68982;52.160;6.736;2023-04-03T00:46:02;102859.03;;;3.53;69.01
79534;BME280;68982;52.160;6.736;2023-04-03T00:48:34;102860.75;;;3.54;68.27
79534;BME280;68982;52.160;6.736;2023-04-03T00:51:03;102863.50;;;3.52;69.22
79534;BME280;68982;52.160;6.736;2023-04-03T00:53:33;102865.69;;;3.46;69.08
79534;BME280;68982;52.160;6.736;2023-04-03T00:55:59;102866.94;;;3.40;69.41
79534;BME280;68982;52.160;6.736;2023-04-03T00:58:34;102860.72;;;3.40;69.51
79534;BME280;68982;52.160;6.736;2023-04-03T01:01:06;102858.31;;;3.35;70.12
79534;BME280;68982;52.160;6.736;2023-04-03T01:03:33;102868.06;;;3.36;69.79
79534;BME280;68982;52.160;6.736;2023-04-03T01:05:59;102865.19;;;3.39;69.63
79534;BME280;68982;52.160;6.736;2023-04-03T01:08:24;102872.78;;;3.31;70.46
79534;BME280;68982;52.160;6.736;2023-04-03T01:10:50;102868.91;;;3.37;70.91
79534;BME280;68982;52.160;6.736;2023-04-03T01:13:26;102867.56;;;3.29;69.70
79534;BME280;68982;52.160;6.736;2023-04-03T01:15:52;102872.91;;;3.29;70.27
79534;BME280;68982;52.160;6.736;2023-04-03T01:18:17;102864.00;;;3.29;70.43
79534;BME280;68982;52.160;6.736;2023-04-03T01:26:34;102877.13;;;3.18;70.70
79534;BME280;68982;52.160;6.736;2023-04-03T01:29:01;102877.63;;;3.24;69.83
79534;BME280;68982;52.160;6.736;2023-04-03T01:31:28;102877.13;;;3.18;69.51
79534;BME280;68982;52.160;6.736;2023-04-03T01:33:56;102872.06;;;3.13;70.88
79534;BME280;68982;52.160;6.736;2023-04-03T01:36:25;102879.00;;;3.16;70.33
79534;BME280;68982;52.160;6.736;2023-04-03T01:38:52;102879.91;;;3.16;70.68
79534;BME280;68982;52.160;6.736;2023-04-03T01:41:19;102888.31;;;3.08;70.84
79534;BME280;68982;52.160;6.736;2023-04-03T01:43:46;102885.94;;;3.04;71.08
79534;BME280;68982;52.160;6.736;2023-04-03T01:46:11;102893.44;;;2.97;71.12
79534;BME280;68982;52.160;6.736;2023-04-03T01:48:37;102886.47;;;2.95;71.00
79534;BME280;68982;52.160;6.736;2023-04-03T01:51:02;102883.03;;;2.93;71.73
79534;BME280;68982;52.160;6.736;2023-04-03T01:53:27;102888.94;;;2.98;71.52
79534;BME280;68982;52.160;6.736;2023-04-03T01:55:53;102902.28;;;2.98;71.57
79534;BME280;68982;52.160;6.736;2023-04-03T01:58:18;102899.72;;;2.96;71.33
79534;BME280;68982;52.160;6.736;2023-04-03T02:00:44;102896.28;;;2.94;71.20
79534;BME280;68982;52.160;6.736;2023-04-03T02:03:09;102896.63;;;2.88;71.13
79534;BME280;68982;52.160;6.736;2023-04-03T02:05:35;102891.56;;;2.83;72.11
79534;BME280;68982;52.160;6.736;2023-04-03T02:08:01;102901.09;;;2.87;71.95
79534;BME280;68982;52.160;6.736;2023-04-03T02:10:26;102900.59;;;2.81;72.02
79534;BME280;68982;52.160;6.736;2023-04-03T02:12:51;102903.50;;;2.76;72.34
79534;BME280;68982;52.160;6.736;2023-04-03T02:15:17;102895.59;;;2.75;72.45
79534;BME280;68982;52.160;6.736;2023-04-03T02:17:42;102901.00;;;2.73;71.74
79534;BME280;68982;52.160;6.736;2023-04-03T02:20:08;102906.97;;;2.62;72.08
79534;BME280;68982;52.160;6.736;2023-04-03T02:22:34;102900.75;;;2.62;73.45
79534;BME280;68982;52.160;6.736;2023-04-03T02:25:00;102912.19;;;2.64;72.55
79534;BME280;68982;52.160;6.736;2023-04-03T02:27:26;102904.97;;;2.66;72.16
79534;BME280;68982;52.160;6.736;2023-04-03T02:29:52;102909.84;;;2.58;72.47
79534;BME280;68982;52.160;6.736;2023-04-03T02:32:17;102913.41;;;2.58;71.69
79534;BME280;68982;52.160;6.736;2023-04-03T02:34:43;102911.00;;;2.54;72.57
79534;BME280;68982;52.160;6.736;2023-04-03T02:37:08;102910.28;;;2.50;72.63
79534;BME280;68982;52.160;6.736;2023-04-03T02:39:34;102918.28;;;2.50;73.51
79534;BME280;68982;52.160;6.736;2023-04-03T02:41:59;102910.63;;;2.44;72.64
79534;BME280;68982;52.160;6.736;2023-04-03T02:44:25;102913.22;;;2.45;71.62
79534;BME280;68982;52.160;6.736;2023-04-03T02:46:50;102906.66;;;2.35;71.89
79534;BME280;68982;52.160;6.736;2023-04-03T02:49:16;102912.75;;;2.37;72.02
79534;BME280;68982;52.160;6.736;2023-04-03T02:51:41;102912.16;;;2.32;72.77
79534;BME280;68982;52.160;6.736;2023-04-03T02:54:07;102923.00;;;2.29;72.83
79534;BME280;68982;52.160;6.736;2023-04-03T02:56:33;102919.31;;;2.32;72.29
79534;BME280;68982;52.160;6.736;2023-04-03T02:58:58;102916.25;;;2.22;73.05
79534;BME280;68982;52.160;6.736;2023-04-03T03:01:24;102917.81;;;2.26;71.92
79534;BME280;68982;52.160;6.736;2023-04-03T03:03:49;102911.72;;;2.24;71.95
79534;BME280;68982;52.160;6.736;2023-04-03T03:06:16;102909.38;;;2.18;72.08
79534;BME280;68982;52.160;6.736;2023-04-03T03:08:42;102891.75;;;1.99;71.61
79534;BME280;68982;52.160;6.736;2023-04-03T03:11:08;102910.34;;;2.17;71.84
79534;BME280;68982;52.160;6.736;2023-04-03T03:13:34;102913.19;;;2.14;71.68
79534;BME280;68982;52.160;6.736;2023-04-03T03:16:00;102906.44;;;2.06;71.50
79534;BME280;68982;52.160;6.736;2023-04-03T03:18:26;102913.75;;;2.03;70.70
79534;BME280;68982;52.160;6.736;2023-04-03T03:20:59;102927.44;;;1.95;70.82
79534;BME280;68982;52.160;6.736;2023-04-03T03:23:26;102924.22;;;2.06;71.34
79534;BME280;68982;52.160;6.736;2023-04-03T03:26:00;102921.25;;;1.95;71.64
79534;BME280;68982;52.160;6.736;2023-04-03T03:28:27;102923.47;;;1.86;71.64
79534;BME280;68982;52.160;6.736;2023-04-03T03:30:52;102925.56;;;1.97;71.47
79534;BME280;68982;52.160;6.736;2023-04-03T03:33:18;102928.09;;;1.83;72.41
79534;BME280;68982;52.160;6.736;2023-04-03T03:35:44;102933.25;;;1.86;71.93
79534;BME280;68982;52.160;6.736;2023-04-03T03:38:09;102931.78;;;1.80;72.68
79534;BME280;68982;52.160;6.736;2023-04-03T03:40:35;102927.47;;;1.78;72.60
79534;BME280;68982;52.160;6.736;2023-04-03T03:43:00;102935.44;;;1.78;73.33
79534;BME280;68982;52.160;6.736;2023-04-03T03:45:26;102929.97;;;1.81;72.46
79534;BME280;68982;52.160;6.736;2023-04-03T03:47:51;102934.59;;;1.77;73.06
79534;BME280;68982;52.160;6.736;2023-04-03T03:50:17;102934.75;;;1.74;72.66
79534;BME280;68982;52.160;6.736;2023-04-03T03:52:42;102939.13;;;1.75;72.83
79534;BME280;68982;52.160;6.736;2023-04-03T03:55:08;102935.06;;;1.68;72.24
79534;BME280;68982;52.160;6.736;2023-04-03T03:57:33;102936.56;;;1.56;72.93
79534;BME280;68982;52.160;6.736;2023-04-03T03:59:59;102936.31;;;1.61;72.44
79534;BME280;68982;52.160;6.736;2023-04-03T04:02:24;102941.41;;;1.65;71.72
79534;BME280;68982;52.160;6.736;2023-04-03T04:04:49;102944.25;;;1.62;72.29
79534;BME280;68982;52.160;6.736;2023-04-03T04:07:15;102955.25;;;1.55;72.35
79534;BME280;68982;52.160;6.736;2023-04-03T04:09:40;102945.78;;;1.49;73.09
79534;BME280;68982;52.160;6.736;2023-04-03T04:12:06;102951.13;;;1.49;72.86
79534;BME280;68982;52.160;6.736;2023-04-03T04:14:31;102951.19;;;1.48;72.99
79534;BME280;68982;52.160;6.736;2023-04-03T04:16:57;102955.66;;;1.47;72.63
79534;BME280;68982;52.160;6.736;2023-04-03T04:19:22;102944.47;;;1.40;73.11
79534;BME280;68982;52.160;6.736;2023-04-03T04:21:47;102951.78;;;1.35;73.17
79534;BME280;68982;52.160;6.736;2023-04-03T04:24:13;102957.88;;;1.37;73.13
79534;BME280;68982;52.160;6.736;2023-04-03T04:26:38;102955.47;;;1.33;73.04
79534;BME280;68982;52.160;6.736;2023-04-03T04:29:04;102959.19;;;1.29;73.56
79534;BME280;68982;52.160;6.736;2023-04-03T04:31:29;102958.28;;;1.30;73.44
79534;BME280;68982;52.160;6.736;2023-04-03T04:33:54;102958.56;;;1.23;73.26
79534;BME280;68982;52.160;6.736;2023-04-03T04:36:20;102955.28;;;1.18;73.41
79534;BME280;68982;52.160;6.736;2023-04-03T04:38:45;102968.72;;;1.15;73.44
79534;BME280;68982;52.160;6.736;2023-04-03T04:41:11;102965.44;;;1.10;73.85
79534;BME280;68982;52.160;6.736;2023-04-03T04:43:36;102964.00;;;1.03;73.75
79534;BME280;68982;52.160;6.736;2023-04-03T04:46:06;102967.59;;;1.02;74.10
79534;BME280;68982;52.160;6.736;2023-04-03T04:48:33;102979.16;;;1.01;74.20
79534;BME280;68982;52.160;6.736;2023-04-03T04:50:59;102977.88;;;0.91;74.93
79534;BME280;68982;52.160;6.736;2023-04-03T04:53:24;102983.34;;;0.88;74.59
79534;BME280;68982;52.160;6.736;2023-04-03T04:55:50;102980.53;;;0.91;74.08
79534;BME280;68982;52.160;6.736;2023-04-03T04:58:16;102986.63;;;0.93;74.85
79534;BME280;68982;52.160;6.736;2023-04-03T05:00:42;102985.19;;;0.86;73.95
79534;BME280;68982;52.160;6.736;2023-04-03T05:03:07;103001.13;;;0.86;74.29
79534;BME280;68982;52.160;6.736;2023-04-03T05:05:33;102997.84;;;0.80;74.03
79534;BME280;68982;52.160;6.736;2023-04-03T05:07:59;102997.06;;;0.78;73.71
79534;BME280;68982;52.160;6.736;2023-04-03T05:10:24;102991.59;;;0.81;73.64
79534;BME280;68982;52.160;6.736;2023-04-03T05:12:50;102991.00;;;0.75;73.75
79534;BME280;68982;52.160;6.736;2023-04-03T05:15:16;102995.19;;;0.80;73.98
79534;BME280;68982;52.160;6.736;2023-04-03T05:17:41;102993.53;;;0.78;73.77
79534;BME280;68982;52.160;6.736;2023-04-03T05:20:07;102993.59;;;0.76;74.05
79534;BME280;68982;52.160;6.736;2023-04-03T05:22:33;102997.13;;;0.77;73.98
79534;BME280;68982;52.160;6.736;2023-04-03T05:24:59;103005.28;;;0.72;73.98
79534;BME280;68982;52.160;6.736;2023-04-03T05:27:25;102992.44;;;0.63;73.93
79534;BME280;68982;52.160;6.736;2023-04-03T05:29:53;103004.44;;;0.72;73.60
79534;BME280;68982;52.160;6.736;2023-04-03T05:32:19;102994.16;;;0.64;73.42
79534;BME280;68982;52.160;6.736;2023-04-03T05:34:45;103005.84;;;0.60;74.36
79534;BME280;68982;52.160;6.736;2023-04-03T05:37:11;103006.78;;;0.59;73.25
79534;BME280;68982;52.160;6.736;2023-04-03T05:39:36;103000.69;;;0.57;73.73
79534;BME280;68982;52.160;6.736;2023-04-03T05:42:03;102998.84;;;0.59;74.25
79534;BME280;68982;52.160;6.736;2023-04-03T05:44:29;103011.94;;;0.62;73.73
79534;BME280;68982;52.160;6.736;2023-04-03T05:46:54;103020.59;;;0.67;72.95
79534;BME280;68982;52.160;6.736;2023-04-03T05:49:20;103006.66;;;0.62;73.62
79534;BME280;68982;52.160;6.736;2023-04-03T05:51:45;103023.88;;;0.72;73.25
79534;BME280;68982;52.160;6.736;2023-04-03T05:54:19;103032.13;;;0.66;73.10
79534;BME280;68982;52.160;6.736;2023-04-03T05:56:46;103033.88;;;0.67;73.00
79534;BME280;68982;52.160;6.736;2023-04-03T05:59:11;103038.13;;;0.71;72.97
79534;BME280;68982;52.160;6.736;2023-04-03T06:01:36;103026.75;;;0.87;71.64
79534;BME280;68982;52.160;6.736;2023-04-03T06:04:02;103041.47;;;1.13;71.53
79534;BME280;68982;52.160;6.736;2023-04-03T06:06:49;103040.72;;;1.47;69.42
79534;BME280;68982;52.160;6.736;2023-04-03T06:09:17;103047.63;;;1.69;68.75
79534;BME280;68982;52.160;6.736;2023-04-03T06:11:43;103046.38;;;1.93;66.83
79534;BME280;68982;52.160;6.736;2023-04-03T06:14:09;103038.94;;;2.17;66.54
79534;BME280;68982;52.160;6.736;2023-04-03T06:16:34;103053.88;;;2.37;65.26
79534;BME280;68982;52.160;6.736;2023-04-03T06:19:00;103039.91;;;2.67;64.26
79534;BME280;68982;52.160;6.736;2023-04-03T06:21:25;103051.53;;;2.98;62.68
79534;BME280;68982;52.160;6.736;2023-04-03T06:23:51;103047.66;;;2.87;62.33
79534;BME280;68982;52.160;6.736;2023-04-03T06:26:17;103041.28;;;2.74;63.71
79534;BME280;68982;52.160;6.736;2023-04-03T06:28:42;103038.97;;;2.51;63.96
79534;BME280;68982;52.160;6.736;2023-04-03T06:31:08;103044.22;;;2.01;65.77
79534;BME280;68982;52.160;6.736;2023-04-03T06:33:34;103045.78;;;1.88;66.41
79534;BME280;68982;52.160;6.736;2023-04-03T06:36:00;103051.06;;;1.71;66.54
79534;BME280;68982;52.160;6.736;2023-04-03T06:38:28;103047.78;;;1.65;67.02
79534;BME280;68982;52.160;6.736;2023-04-03T06:40:53;103043.63;;;1.60;67.24
79534;BME280;68982;52.160;6.736;2023-04-03T06:43:19;103039.41;;;1.56;67.39
79534;BME280;68982;52.160;6.736;2023-04-03T06:45:45;103049.88;;;1.59;67.66
79534;BME280;68982;52.160;6.736;2023-04-03T06:48:12;103057.81;;;1.60;67.58
79534;BME280;68982;52.160;6.736;2023-04-03T06:50:38;103056.84;;;1.61;67.61
79534;BME280;68982;52.160;6.736;2023-04-03T06:53:03;103061.59;;;1.55;66.79
79534;BME280;68982;52.160;6.736;2023-04-03T06:55:28;103063.69;;;1.67;66.72
79534;BME280;68982;52.160;6.736;2023-04-03T06:57:54;103065.22;;;1.71;65.96
79534;BME280;68982;52.160;6.736;2023-04-03T07:00:20;103064.25;;;1.74;66.70
79534;BME280;68982;52.160;6.736;2023-04-03T07:02:46;103073.69;;;1.79;64.90
79534;BME280;68982;52.160;6.736;2023-04-03T07:05:12;103075.34;;;1.82;63.82
79534;BME280;68982;52.160;6.736;2023-04-03T07:07:38;103071.25;;;1.75;64.82
79534;BME280;68982;52.160;6.736;2023-04-03T07:10:05;103069.94;;;1.83;63.39
79534;BME280;68982;52.160;6.736;2023-04-03T07:12:31;103082.72;;;2.12;63.17
79534;BME280;68982;52.160;6.736;2023-04-03T07:14:57;103078.72;;;2.71;61.83
79534;BME280;68982;52.160;6.736;2023-04-03T07:17:23;103082.34;;;3.19;58.53
79534;BME280;68982;52.160;6.736;2023-04-03T07:19:49;103080.63;;;3.50;56.27
79534;BME280;68982;52.160;6.736;2023-04-03T07:22:14;103078.78;;;3.66;56.28
79534;BME280;68982;52.160;6.736;2023-04-03T07:24:39;103083.78;;;4.03;54.43
79534;BME280;68982;52.160;6.736;2023-04-03T07:27:05;103095.88;;;3.94;52.97
79534;BME280;68982;52.160;6.736;2023-04-03T07:29:30;103086.19;;;4.07;52.77
79534;BME280;68982;52.160;6.736;2023-04-03T07:31:56;103104.13;;;4.20;52.17
79534;BME280;68982;52.160;6.736;2023-04-03T07:34:22;103097.09;;;4.19;52.65
79534;BME280;68982;52.160;6.736;2023-04-03T07:36:47;103098.22;;;4.14;51.53
79534;BME280;68982;52.160;6.736;2023-04-03T07:39:13;103099.22;;;4.28;51.87
79534;BME280;68982;52.160;6.736;2023-04-03T07:41:38;103082.78;;;4.20;51.23
79534;BME280;68982;52.160;6.736;2023-04-03T07:44:04;103099.50;;;4.38;50.63
79534;BME280;68982;52.160;6.736;2023-04-03T07:46:30;103095.53;;;4.45;49.29
79534;BME280;68982;52.160;6.736;2023-04-03T07:48:56;103101.28;;;4.67;49.38
79534;BME280;68982;52.160;6.736;2023-04-03T07:51:21;103098.97;;;4.75;49.00
79534;BME280;68982;52.160;6.736;2023-04-03T07:53:47;103109.41;;;4.94;49.79
79534;BME280;68982;52.160;6.736;2023-04-03T07:56:13;103112.06;;;4.94;48.94
79534;BME280;68982;52.160;6.736;2023-04-03T07:58:39;103112.22;;;5.34;48.93
79534;BME280;68982;52.160;6.736;2023-04-03T08:01:04;103113.34;;;5.45;46.01
79534;BME280;68982;52.160;6.736;2023-04-03T08:03:29;103103.44;;;5.87;45.82
79534;BME280;68982;52.160;6.736;2023-04-03T08:06:02;103105.84;;;6.18;45.46
79534;BME280;68982;52.160;6.736;2023-04-03T08:08:28;103106.44;;;6.49;43.79
79534;BME280;68982;52.160;6.736;2023-04-03T08:10:54;103097.50;;;6.49;42.82
79534;BME280;68982;52.160;6.736;2023-04-03T08:13:21;103092.34;;;6.33;45.57
79534;BME280;68982;52.160;6.736;2023-04-03T08:15:47;103109.19;;;6.35;44.63
79534;BME280;68982;52.160;6.736;2023-04-03T08:18:13;103103.66;;;6.11;45.42
79534;BME280;68982;52.160;6.736;2023-04-03T08:20:39;103113.84;;;6.06;43.99
79534;BME280;68982;52.160;6.736;2023-04-03T08:23:06;103114.41;;;6.23;43.14
79534;BME280;68982;52.160;6.736;2023-04-03T08:25:32;103120.78;;;6.48;43.35
79534;BME280;68982;52.160;6.736;2023-04-03T08:27:58;103113.25;;;6.53;42.74
79534;BME280;68982;52.160;6.736;2023-04-03T08:30:23;103106.66;;;6.72;40.98
79534;BME280;68982;52.160;6.736;2023-04-03T08:32:48;103118.00;;;6.75;41.19
79534;BME280;68982;52.160;6.736;2023-04-03T08:35:14;103114.88;;;6.69;40.35
79534;BME280;68982;52.160;6.736;2023-04-03T08:37:40;103111.97;;;6.97;41.11
79534;BME280;68982;52.160;6.736;2023-04-03T08:40:07;103118.81;;;7.14;40.13
79534;BME280;68982;52.160;6.736;2023-04-03T08:45:44;103111.53;;;7.77;38.94
79534;BME280;68982;52.160;6.736;2023-04-03T08:48:31;103109.66;;;7.91;35.56
79534;BME280;68982;52.160;6.736;2023-04-03T08:51:02;103109.94;;;7.99;35.51
79534;BME280;68982;52.160;6.736;2023-04-03T08:53:33;103110.66;;;8.25;38.16
79534;BME280;68982;52.160;6.736;2023-04-03T08:56:05;103122.72;;;8.19;35.57
79534;BME280;68982;52.160;6.736;2023-04-03T08:58:50;103118.09;;;8.33;34.76
79534;BME280;68982;52.160;6.736;2023-04-03T09:01:32;103121.28;;;8.38;34.63
79534;BME280;68982;52.160;6.736;2023-04-03T09:04:00;103114.75;;;8.42;34.39
79534;BME280;68982;52.160;6.736;2023-04-03T09:06:29;103103.34;;;8.38;33.25
79534;BME280;68982;52.160;6.736;2023-04-03T09:09:20;103116.91;;;8.83;32.44
79534;BME280;68982;52.160;6.736;2023-04-03T09:15:02;103105.13;;;8.73;29.89
79534;BME280;68982;52.160;6.736;2023-04-03T09:23:17;103118.28;;;9.66;29.42
79534;BME280;68982;52.160;6.736;2023-04-03T09:25:43;103118.16;;;9.68;29.20
79534;BME280;68982;52.160;6.736;2023-04-03T09:28:09;103120.47;;;9.72;27.98
79534;BME280;68982;52.160;6.736;2023-04-03T09:30:35;103120.09;;;9.77;27.91
79534;BME280;68982;52.160;6.736;2023-04-03T09:33:01;103106.53;;;10.00;26.55
79534;BME280;68982;52.160;6.736;2023-04-03T09:35:31;103107.91;;;10.15;26.01
79534;BME280;68982;52.160;6.736;2023-04-03T09:40:40;103114.56;;;10.11;25.20
79534;BME280;68982;52.160;6.736;2023-04-03T09:43:20;103110.22;;;10.20;26.51
79534;BME280;68982;52.160;6.736;2023-04-03T09:45:47;103107.97;;;10.04;26.61
79534;BME280;68982;52.160;6.736;2023-04-03T09:53:39;103105.41;;;10.34;25.96
79534;BME280;68982;52.160;6.736;2023-04-03T09:56:26;103101.38;;;10.50;27.32
79534;BME280;68982;52.160;6.736;2023-04-03T09:59:11;103100.59;;;10.59;25.91
79534;BME280;68982;52.160;6.736;2023-04-03T10:01:41;103097.41;;;10.75;26.14
79534;BME280;68982;52.160;6.736;2023-04-03T10:04:11;103105.75;;;11.03;26.22
79534;BME280;68982;52.160;6.736;2023-04-03T10:09:30;103091.25;;;11.44;25.12
79534;BME280;68982;52.160;6.736;2023-04-03T10:12:03;103100.44;;;10.91;24.85
79534;BME280;68982;52.160;6.736;2023-04-03T10:14:38;103088.06;;;11.19;25.75
79534;BME280;68982;52.160;6.736;2023-04-03T10:24:44;103076.94;;;11.73;24.69
79534;BME280;68982;52.160;6.736;2023-04-03T10:28:05;103085.34;;;12.28;25.64
79534;BME280;68982;52.160;6.736;2023-04-03T10:30:26;103076.75;;;12.52;25.20
79534;BME280;68982;52.160;6.736;2023-04-03T10:35:43;103065.78;;;12.44;26.28
79534;BME280;68982;52.160;6.736;2023-04-03T10:38:19;103062.38;;;12.42;26.59
79534;BME280;68982;52.160;6.736;2023-04-03T10:40:59;103061.88;;;11.99;24.39
79534;BME280;68982;52.160;6.736;2023-04-03T10:43:42;103069.84;;;12.68;24.31
79534;BME280;68982;52.160;6.736;2023-04-03T10:46:18;103060.50;;;13.17;24.34
79534;BME280;68982;52.160;6.736;2023-04-03T10:51:42;103055.44;;;13.04;25.74
79534;BME280;68982;52.160;6.736;2023-04-03T10:54:24;103057.38;;;12.84;24.19
79534;BME280;68982;52.160;6.736;2023-04-03T10:57:11;103050.03;;;12.20;24.92
79534;BME280;68982;52.160;6.736;2023-04-03T10:59:50;103043.53;;;13.15;25.38
79534;BME280;68982;52.160;6.736;2023-04-03T11:02:19;103044.75;;;13.31;24.50
79534;BME280;68982;52.160;6.736;2023-04-03T11:04:55;103038.59;;;13.56;23.59
79534;BME280;68982;52.160;6.736;2023-04-03T11:07:26;103041.31;;;12.73;23.82
79534;BME280;68982;52.160;6.736;2023-04-03T11:09:56;103038.50;;;13.20;25.78
79534;BME280;68982;52.160;6.736;2023-04-03T11:12:28;103044.31;;;13.53;24.36
79534;BME280;68982;52.160;6.736;2023-04-03T11:14:59;103024.56;;;13.79;23.88
79534;BME280;68982;52.160;6.736;2023-04-03T11:17:38;103023.31;;;13.37;25.25
79534;BME280;68982;52.160;6.736;2023-04-03T11:20:17;103041.34;;;13.01;25.11
79534;BME280;68982;52.160;6.736;2023-04-03T11:22:57;103033.72;;;12.86;23.70
79534;BME280;68982;52.160;6.736;2023-04-03T11:25:25;103032.94;;;13.22;24.16
79534;BME280;68982;52.160;6.736;2023-04-03T11:27:57;103026.72;;;13.93;23.35
79534;BME280;68982;52.160;6.736;2023-04-03T11:36:32;103025.19;;;13.73;24.24
79534;BME280;68982;52.160;6.736;2023-04-03T11:39:10;103025.13;;;13.19;25.63
79534;BME280;68982;52.160;6.736;2023-04-03T11:41:40;103011.34;;;13.12;25.52
79534;BME280;68982;52.160;6.736;2023-04-03T11:44:35;103022.16;;;13.40;24.58
79534;BME280;68982;52.160;6.736;2023-04-03T11:47:04;103016.81;;;13.30;24.25
79534;BME280;68982;52.160;6.736;2023-04-03T11:50:02;103013.03;;;13.59;26.26
79534;BME280;68982;52.160;6.736;2023-04-03T12:16:25;102986.69;;;13.33;23.88
79534;BME280;68982;52.160;6.736;2023-04-03T12:29:37;102974.59;;;13.27;24.01
79534;BME280;68982;52.160;6.736;2023-04-03T12:35:22;102982.28;;;14.12;25.42
79534;BME280;68982;52.160;6.736;2023-04-03T12:45:58;102965.50;;;13.46;26.19
79534;BME280;68982;52.160;6.736;2023-04-03T12:48:27;102974.56;;;13.37;28.57
79534;BME280;68982;52.160;6.736;2023-04-03T12:50:54;102970.34;;;13.79;26.48
79534;BME280;68982;52.160;6.736;2023-04-03T12:53:37;102966.59;;;13.80;26.71
79534;BME280;68982;52.160;6.736;2023-04-03T12:56:29;102951.63;;;13.67;26.45
79534;BME280;68982;52.160;6.736;2023-04-03T12:59:20;102960.38;;;13.43;26.38
79534;BME280;68982;52.160;6.736;2023-04-03T13:01:54;102944.72;;;13.19;27.50
79534;BME280;68982;52.160;6.736;2023-04-03T13:04:20;102948.31;;;12.74;26.95
79534;BME280;68982;52.160;6.736;2023-04-03T13:06:46;102939.75;;;12.97;27.49
79534;BME280;68982;52.160;6.736;2023-04-03T13:11:48;102942.09;;;13.63;29.22
79534;BME280;68982;52.160;6.736;2023-04-03T13:14:22;102945.75;;;13.54;27.49
79534;BME280;68982;52.160;6.736;2023-04-03T13:16:55;102930.94;;;13.93;27.49
79534;BME280;68982;52.160;6.736;2023-04-03T13:19:26;102937.56;;;14.24;26.33
79534;BME280;68982;52.160;6.736;2023-04-03T13:22:06;102938.16;;;13.84;26.50
79534;BME280;68982;52.160;6.736;2023-04-03T13:24:36;102931.50;;;14.04;26.61
79534;BME280;68982;52.160;6.736;2023-04-03T13:27:03;102932.56;;;14.12;26.34
79534;BME280;68982;52.160;6.736;2023-04-03T13:29:32;102927.81;;;13.79;25.83
79534;BME280;68982;52.160;6.736;2023-04-03T13:31:59;102918.06;;;13.95;26.42
79534;BME280;68982;52.160;6.736;2023-04-03T13:34:28;102920.84;;;13.77;27.46
79534;BME280;68982;52.160;6.736;2023-04-03T13:36:59;102915.69;;;13.65;26.23
79534;BME280;68982;52.160;6.736;2023-04-03T13:39:29;102916.47;;;13.04;26.29
79534;BME280;68982;52.160;6.736;2023-04-03T13:42:00;102906.88;;;13.27;27.68
79534;BME280;68982;52.160;6.736;2023-04-03T13:44:33;102917.69;;;13.63;26.68
79534;BME280;68982;52.160;6.736;2023-04-03T13:47:21;102920.59;;;13.44;26.40
79534;BME280;68982;52.160;6.736;2023-04-03T13:50:13;102908.47;;;13.20;27.38
79534;BME280;68982;52.160;6.736;2023-04-03T13:55:24;102903.97;;;13.91;26.82
79534;BME280;68982;52.160;6.736;2023-04-03T13:57:51;102896.78;;;13.56;29.34
79534;BME280;68982;52.160;6.736;2023-04-03T14:02:56;102893.94;;;13.03;28.77
79534;BME280;68982;52.160;6.736;2023-04-03T14:05:22;102897.25;;;13.15;30.12
79534;BME280;68982;52.160;6.736;2023-04-03T14:07:50;102896.63;;;13.57;26.58
79534;BME280;68982;52.160;6.736;2023-04-03T14:10:16;102894.25;;;13.54;27.97
79534;BME280;68982;52.160;6.736;2023-04-03T14:12:41;102902.41;;;13.36;27.35
79534;BME280;68982;52.160;6.736;2023-04-03T14:15:20;102889.38;;;13.04;28.83
79534;BME280;68982;52.160;6.736;2023-04-03T14:17:48;102884.56;;;13.16;28.22
79534;BME280;68982;52.160;6.736;2023-04-03T14:20:20;102887.22;;;13.07;28.61
79534;BME280;68982;52.160;6.736;2023-04-03T14:22:47;102888.09;;;12.80;27.97
79534;BME280;68982;52.160;6.736;2023-04-03T14:25:14;102884.09;;;12.84;30.02
79534;BME280;68982;52.160;6.736;2023-04-03T14:27:43;102882.56;;;13.00;29.71
79534;BME280;68982;52.160;6.736;2023-04-03T14:30:14;102899.81;;;12.53;28.74
79534;BME280;68982;52.160;6.736;2023-04-03T14:32:41;102891.47;;;12.92;28.96
79534;BME280;68982;52.160;6.736;2023-04-03T14:35:07;102884.97;;;12.85;29.39
79534;BME280;68982;52.160;6.736;2023-04-03T14:37:32;102891.00;;;12.79;28.93
79534;BME280;68982;52.160;6.736;2023-04-03T14:40:00;102882.16;;;12.77;29.63
79534;BME280;68982;52.160;6.736;2023-04-03T14:42:31;102879.16;;;12.34;30.04
79534;BME280;68982;52.160;6.736;2023-04-03T14:44:58;102877.09;;;12.18;30.03
79534;BME280;68982;52.160;6.736;2023-04-03T14:47:27;102876.66;;;12.13;28.75